sensor_id;sensor_type;location;lat;lon;timestamp;temperature;humidity
57552;DHT22;43379;48.160;14.036;2022-11-15T00:00:28;8.20;99.90
57552;DHT22;43379;48.160;14.036;2022-11-15T00:02:54;8.20;99.90
57552;DHT22;43379;48.160;14.036;2022-11-15T00:05:20;8.10;99.90
57552;DHT22;43379;48.160;14.036;2022-11-15T00:07:46;8.20;99.90
57552;DHT22;43379;48.160;14.036;2022-11-15T00:10:12;8.20;99.90
57552;DHT22;43379;48.160;14.036;2022-11-15T00:12:38;8.10;99.90
57552;DHT22;43379;48.160;14.036;2022-11-15T00:15:04;8.20;99.90
57552;DHT22;43379;48.160;14.036;2022-11-15T00:17:30;8.10;99.90
57552;DHT22;43379;48.160;14.036;2022-11-15T00:19:56;8.10;99.90
57552;DHT22;43379;48.160;14.036;2022-11-15T00:22:21;8.10;99.90
57552;DHT22;43379;48.160;14.036;2022-11-15T00:24:47;8.10;99.90
57552;DHT22;43379;48.160;14.036;2022-11-15T00:27:13;8.00;99.90
57552;DHT22;43379;48.160;14.036;2022-11-15T00:29:39;7.90;99.90
57552;DHT22;43379;48.160;14.036;2022-11-15T00:32:09;7.90;99.90
57552;DHT22;43379;48.160;14.036;2022-11-15T00:34:35;7.80;99.90
57552;DHT22;43379;48.160;14.036;2022-11-15T00:37:01;7.80;99.90
57552;DHT22;43379;48.160;14.036;2022-11-15T00:39:27;7.80;99.90
57552;DHT22;43379;48.160;14.036;2022-11-15T00:41:52;7.80;99.90
57552;DHT22;43379;48.160;14.036;2022-11-15T00:44:18;7.70;99.90
57552;DHT22;43379;48.160;14.036;2022-11-15T00:46:44;7.70;99.90
57552;DHT22;43379;48.160;14.036;2022-11-15T00:49:09;7.70;99.90
57552;DHT22;43379;48.160;14.036;2022-11-15T00:51:35;7.70;99.90
57552;DHT22;43379;48.160;14.036;2022-11-15T00:54:01;7.70;99.90
57552;DHT22;43379;48.160;14.036;2022-11-15T00:56:26;7.80;99.90
57552;DHT22;43379;48.160;14.036;2022-11-15T00:58:53;7.70;99.90
57552;DHT22;43379;48.160;14.036;2022-11-15T01:01:18;7.70;99.90
57552;DHT22;43379;48.160;14.036;2022-11-15T01:03:44;7.60;99.90
57552;DHT22;43379;48.160;14.036;2022-11-15T01:06:10;7.60;99.90
57552;DHT22;43379;48.160;14.036;2022-11-15T01:08:39;7.50;99.90
57552;DHT22;43379;48.160;14.036;2022-11-15T01:11:09;7.60;99.90
57552;DHT22;43379;48.160;14.036;2022-11-15T01:13:37;7.50;99.90
57552;DHT22;43379;48.160;14.036;2022-11-15T01:16:15;7.50;99.90
57552;DHT22;43379;48.160;14.036;2022-11-15T01:18:45;7.50;99.90
57552;DHT22;43379;48.160;14.036;2022-11-15T01:21:15;7.30;99.90
57552;DHT22;43379;48.160;14.036;2022-11-15T01:23:41;7.20;99.90
57552;DHT22;43379;48.160;14.036;2022-11-15T01:26:10;7.20;99.90
57552;DHT22;43379;48.160;14.036;2022-11-15T01:28:37;7.30;99.90
57552;DHT22;43379;48.160;14.036;2022-11-15T01:31:15;7.40;99.90
57552;DHT22;43379;48.160;14.036;2022-11-15T01:33:41;7.40;99.90
57552;DHT22;43379;48.160;14.036;2022-11-15T01:36:17;7.40;99.90
57552;DHT22;43379;48.160;14.036;2022-11-15T01:38:43;7.40;99.90
57552;DHT22;43379;48.160;14.036;2022-11-15T01:41:20;7.50;99.90
57552;DHT22;43379;48.160;14.036;2022-11-15T01:43:49;7.40;99.90
57552;DHT22;43379;48.160;14.036;2022-11-15T01:48:52;7.50;99.90
57552;DHT22;43379;48.160;14.036;2022-11-15T01:51:21;7.50;99.90
57552;DHT22;43379;48.160;14.036;2022-11-15T01:53:49;7.50;99.90
57552;DHT22;43379;48.160;14.036;2022-11-15T01:56:21;7.40;99.90
57552;DHT22;43379;48.160;14.036;2022-11-15T01:58:48;7.40;99.90
57552;DHT22;43379;48.160;14.036;2022-11-15T02:01:14;7.30;99.90
57552;DHT22;43379;48.160;14.036;2022-11-15T02:03:56;7.30;99.90
57552;DHT22;43379;48.160;14.036;2022-11-15T02:06:23;7.30;99.90
57552;DHT22;43379;48.160;14.036;2022-11-15T02:08:49;7.30;99.90
57552;DHT22;43379;48.160;14.036;2022-11-15T02:11:16;7.30;99.90
57552;DHT22;43379;48.160;14.036;2022-11-15T02:13:42;7.30;99.90
57552;DHT22;43379;48.160;14.036;2022-11-15T02:22:43;7.20;99.90
57552;DHT22;43379;48.160;14.036;2022-11-15T02:25:20;7.20;99.90
57552;DHT22;43379;48.160;14.036;2022-11-15T02:33:32;7.10;99.90
57552;DHT22;43379;48.160;14.036;2022-11-15T02:36:04;7.10;99.90
57552;DHT22;43379;48.160;14.036;2022-11-15T02:38:43;7.10;99.90
57552;DHT22;43379;48.160;14.036;2022-11-15T02:41:35;7.10;99.90
57552;DHT22;43379;48.160;14.036;2022-11-15T02:44:43;7.10;99.90
57552;DHT22;43379;48.160;14.036;2022-11-15T02:47:07;7.10;99.90
57552;DHT22;43379;48.160;14.036;2022-11-15T02:49:53;7.00;99.90
57552;DHT22;43379;48.160;14.036;2022-11-15T02:52:22;7.10;99.90
57552;DHT22;43379;48.160;14.036;2022-11-15T02:54:56;7.10;99.90
57552;DHT22;43379;48.160;14.036;2022-11-15T03:00:13;7.10;99.90
57552;DHT22;43379;48.160;14.036;2022-11-15T03:05:18;7.10;99.90
57552;DHT22;43379;48.160;14.036;2022-11-15T03:10:20;7.10;99.90
57552;DHT22;43379;48.160;14.036;2022-11-15T03:12:59;7.10;99.90
57552;DHT22;43379;48.160;14.036;2022-11-15T03:15:36;7.10;99.90
57552;DHT22;43379;48.160;14.036;2022-11-15T03:18:10;7.10;99.90
57552;DHT22;43379;48.160;14.036;2022-11-15T03:20:39;7.10;99.90
57552;DHT22;43379;48.160;14.036;2022-11-15T03:23:09;7.10;99.90
57552;DHT22;43379;48.160;14.036;2022-11-15T03:25:41;7.10;99.90
57552;DHT22;43379;48.160;14.036;2022-11-15T03:28:09;6.90;99.90
57552;DHT22;43379;48.160;14.036;2022-11-15T03:30:36;7.00;99.90
57552;DHT22;43379;48.160;14.036;2022-11-15T03:33:04;6.90;99.90
57552;DHT22;43379;48.160;14.036;2022-11-15T03:35:39;6.90;99.90
57552;DHT22;43379;48.160;14.036;2022-11-15T03:38:19;7.00;99.90
57552;DHT22;43379;48.160;14.036;2022-11-15T03:46:05;6.90;99.90
57552;DHT22;43379;48.160;14.036;2022-11-15T03:48:37;6.80;99.90
57552;DHT22;43379;48.160;14.036;2022-11-15T03:51:05;6.90;99.90
57552;DHT22;43379;48.160;14.036;2022-11-15T03:53:31;6.90;99.90
57552;DHT22;43379;48.160;14.036;2022-11-15T03:55:57;6.80;99.90
57552;DHT22;43379;48.160;14.036;2022-11-15T03:58:23;6.80;99.90
57552;DHT22;43379;48.160;14.036;2022-11-15T04:00:49;6.80;99.90
57552;DHT22;43379;48.160;14.036;2022-11-15T04:03:15;6.80;99.90
57552;DHT22;43379;48.160;14.036;2022-11-15T04:05:40;6.90;99.90
57552;DHT22;43379;48.160;14.036;2022-11-15T04:08:06;6.90;99.90
57552;DHT22;43379;48.160;14.036;2022-11-15T04:10:31;6.90;99.90
57552;DHT22;43379;48.160;14.036;2022-11-15T04:12:57;6.80;99.90
57552;DHT22;43379;48.160;14.036;2022-11-15T04:15:23;6.80;99.90
57552;DHT22;43379;48.160;14.036;2022-11-15T04:17:54;6.90;99.90
57552;DHT22;43379;48.160;14.036;2022-11-15T04:20:28;6.80;99.90
57552;DHT22;43379;48.160;14.036;2022-11-15T04:23:18;6.80;99.90
57552;DHT22;43379;48.160;14.036;2022-11-15T04:26:12;6.90;99.90
57552;DHT22;43379;48.160;14.036;2022-11-15T04:28:38;6.90;99.90
57552;DHT22;43379;48.160;14.036;2022-11-15T04:31:23;6.90;99.90
57552;DHT22;43379;48.160;14.036;2022-11-15T04:33:49;6.90;99.90
57552;DHT22;43379;48.160;14.036;2022-11-15T04:36:15;6.90;99.90
57552;DHT22;43379;48.160;14.036;2022-11-15T04:38:59;6.80;99.90
57552;DHT22;43379;48.160;14.036;2022-11-15T04:41:24;6.80;99.90
57552;DHT22;43379;48.160;14.036;2022-11-15T04:43:50;6.70;99.90
57552;DHT22;43379;48.160;14.036;2022-11-15T04:46:16;6.80;99.90
57552;DHT22;43379;48.160;14.036;2022-11-15T04:48:42;6.70;99.90
57552;DHT22;43379;48.160;14.036;2022-11-15T04:51:07;6.70;99.90
57552;DHT22;43379;48.160;14.036;2022-11-15T04:53:33;6.70;99.90
57552;DHT22;43379;48.160;14.036;2022-11-15T04:55:58;6.80;99.90
57552;DHT22;43379;48.160;14.036;2022-11-15T04:58:24;6.80;99.90
57552;DHT22;43379;48.160;14.036;2022-11-15T05:00:50;6.80;99.90
57552;DHT22;43379;48.160;14.036;2022-11-15T05:03:15;6.80;99.90
57552;DHT22;43379;48.160;14.036;2022-11-15T05:06:00;6.80;99.90
57552;DHT22;43379;48.160;14.036;2022-11-15T05:08:26;6.70;99.90
57552;DHT22;43379;48.160;14.036;2022-11-15T05:10:52;6.70;99.90
57552;DHT22;43379;48.160;14.036;2022-11-15T05:13:17;6.70;99.90
57552;DHT22;43379;48.160;14.036;2022-11-15T05:15:43;6.60;99.90
57552;DHT22;43379;48.160;14.036;2022-11-15T05:18:09;6.60;99.90
57552;DHT22;43379;48.160;14.036;2022-11-15T05:20:35;6.60;99.90
57552;DHT22;43379;48.160;14.036;2022-11-15T05:23:01;6.60;99.90
57552;DHT22;43379;48.160;14.036;2022-11-15T05:25:27;6.50;99.90
57552;DHT22;43379;48.160;14.036;2022-11-15T05:27:52;6.60;99.90
57552;DHT22;43379;48.160;14.036;2022-11-15T05:30:18;6.50;99.90
57552;DHT22;43379;48.160;14.036;2022-11-15T05:32:44;6.60;99.90
57552;DHT22;43379;48.160;14.036;2022-11-15T05:35:18;6.50;99.90
57552;DHT22;43379;48.160;14.036;2022-11-15T05:37:45;6.50;99.90
57552;DHT22;43379;48.160;14.036;2022-11-15T05:40:11;6.50;99.90
57552;DHT22;43379;48.160;14.036;2022-11-15T05:42:36;6.50;99.90
57552;DHT22;43379;48.160;14.036;2022-11-15T05:45:05;6.50;99.90
57552;DHT22;43379;48.160;14.036;2022-11-15T05:47:33;6.50;99.90
57552;DHT22;43379;48.160;14.036;2022-11-15T05:49:59;6.50;99.90
57552;DHT22;43379;48.160;14.036;2022-11-15T05:52:28;6.40;99.90
57552;DHT22;43379;48.160;14.036;2022-11-15T05:54:57;6.50;99.90
57552;DHT22;43379;48.160;14.036;2022-11-15T05:57:24;6.50;99.90
57552;DHT22;43379;48.160;14.036;2022-11-15T05:59:49;6.60;99.90
57552;DHT22;43379;48.160;14.036;2022-11-15T06:02:16;6.50;99.90
57552;DHT22;43379;48.160;14.036;2022-11-15T06:04:41;6.40;99.90
57552;DHT22;43379;48.160;14.036;2022-11-15T06:07:07;6.30;99.90
57552;DHT22;43379;48.160;14.036;2022-11-15T06:09:33;6.30;99.90
57552;DHT22;43379;48.160;14.036;2022-11-15T06:11:58;6.20;99.90
57552;DHT22;43379;48.160;14.036;2022-11-15T06:14:24;6.20;99.90
57552;DHT22;43379;48.160;14.036;2022-11-15T06:16:50;6.20;99.90
57552;DHT22;43379;48.160;14.036;2022-11-15T06:19:15;6.20;99.90
57552;DHT22;43379;48.160;14.036;2022-11-15T06:21:42;6.10;99.90
57552;DHT22;43379;48.160;14.036;2022-11-15T06:24:07;6.20;99.90
57552;DHT22;43379;48.160;14.036;2022-11-15T06:26:33;6.10;99.90
57552;DHT22;43379;48.160;14.036;2022-11-15T06:28:59;6.00;99.90
57552;DHT22;43379;48.160;14.036;2022-11-15T06:31:25;6.00;99.90
57552;DHT22;43379;48.160;14.036;2022-11-15T06:33:50;6.00;99.90
57552;DHT22;43379;48.160;14.036;2022-11-15T06:36:16;5.90;99.90
57552;DHT22;43379;48.160;14.036;2022-11-15T06:38:45;5.90;99.90
57552;DHT22;43379;48.160;14.036;2022-11-15T06:41:12;5.90;99.90
57552;DHT22;43379;48.160;14.036;2022-11-15T06:43:38;5.90;99.90
57552;DHT22;43379;48.160;14.036;2022-11-15T06:46:05;5.90;99.90
57552;DHT22;43379;48.160;14.036;2022-11-15T06:48:32;5.90;99.90
57552;DHT22;43379;48.160;14.036;2022-11-15T06:50:59;6.00;99.90
57552;DHT22;43379;48.160;14.036;2022-11-15T06:53:26;6.00;99.90
57552;DHT22;43379;48.160;14.036;2022-11-15T06:55:52;6.00;99.90
57552;DHT22;43379;48.160;14.036;2022-11-15T06:58:20;5.90;99.90
57552;DHT22;43379;48.160;14.036;2022-11-15T07:00:45;5.90;99.90
57552;DHT22;43379;48.160;14.036;2022-11-15T07:03:11;6.00;99.90
57552;DHT22;43379;48.160;14.036;2022-11-15T07:05:37;6.10;99.90
57552;DHT22;43379;48.160;14.036;2022-11-15T07:08:03;6.10;99.90
57552;DHT22;43379;48.160;14.036;2022-11-15T07:10:29;6.20;99.90
57552;DHT22;43379;48.160;14.036;2022-11-15T07:12:56;6.30;99.90
57552;DHT22;43379;48.160;14.036;2022-11-15T07:15:25;6.40;99.90
57552;DHT22;43379;48.160;14.036;2022-11-15T07:17:51;6.40;99.90
57552;DHT22;43379;48.160;14.036;2022-11-15T07:20:17;6.40;99.90
57552;DHT22;43379;48.160;14.036;2022-11-15T07:22:44;6.40;99.90
57552;DHT22;43379;48.160;14.036;2022-11-15T07:25:13;6.40;99.90
57552;DHT22;43379;48.160;14.036;2022-11-15T07:27:38;6.40;99.90
57552;DHT22;43379;48.160;14.036;2022-11-15T07:30:05;6.60;99.90
57552;DHT22;43379;48.160;14.036;2022-11-15T07:32:31;6.70;99.90
57552;DHT22;43379;48.160;14.036;2022-11-15T07:34:56;6.80;99.90
57552;DHT22;43379;48.160;14.036;2022-11-15T07:37:22;6.80;99.90
57552;DHT22;43379;48.160;14.036;2022-11-15T07:39:48;6.80;99.90
57552;DHT22;43379;48.160;14.036;2022-11-15T07:42:13;6.90;99.90
57552;DHT22;43379;48.160;14.036;2022-11-15T07:44:57;7.00;99.90
57552;DHT22;43379;48.160;14.036;2022-11-15T07:47:23;7.00;99.90
57552;DHT22;43379;48.160;14.036;2022-11-15T07:49:49;7.10;99.90
57552;DHT22;43379;48.160;14.036;2022-11-15T07:52:14;7.10;99.90
57552;DHT22;43379;48.160;14.036;2022-11-15T07:54:40;7.10;99.90
57552;DHT22;43379;48.160;14.036;2022-11-15T07:57:06;7.10;99.90
57552;DHT22;43379;48.160;14.036;2022-11-15T07:59:35;7.00;99.90
57552;DHT22;43379;48.160;14.036;2022-11-15T08:02:01;7.00;99.90
57552;DHT22;43379;48.160;14.036;2022-11-15T08:04:27;6.90;99.90
57552;DHT22;43379;48.160;14.036;2022-11-15T08:06:52;6.90;99.90
57552;DHT22;43379;48.160;14.036;2022-11-15T08:09:18;6.80;99.90
57552;DHT22;43379;48.160;14.036;2022-11-15T08:11:44;6.40;99.90
57552;DHT22;43379;48.160;14.036;2022-11-15T08:14:09;6.20;99.90
57552;DHT22;43379;48.160;14.036;2022-11-15T08:16:35;6.20;99.90
57552;DHT22;43379;48.160;14.036;2022-11-15T08:19:01;6.20;99.90
57552;DHT22;43379;48.160;14.036;2022-11-15T08:21:26;6.30;99.90
57552;DHT22;43379;48.160;14.036;2022-11-15T08:23:52;6.30;99.90
57552;DHT22;43379;48.160;14.036;2022-11-15T08:26:18;6.50;99.90
57552;DHT22;43379;48.160;14.036;2022-11-15T08:28:43;6.50;99.90
57552;DHT22;43379;48.160;14.036;2022-11-15T08:31:14;6.60;99.90
57552;DHT22;43379;48.160;14.036;2022-11-15T08:33:42;6.40;99.90
57552;DHT22;43379;48.160;14.036;2022-11-15T08:36:15;6.30;99.90
57552;DHT22;43379;48.160;14.036;2022-11-15T08:38:42;6.40;99.90
57552;DHT22;43379;48.160;14.036;2022-11-15T08:41:13;6.50;99.90
57552;DHT22;43379;48.160;14.036;2022-11-15T08:43:39;6.60;99.90
57552;DHT22;43379;48.160;14.036;2022-11-15T08:46:05;6.70;99.90
57552;DHT22;43379;48.160;14.036;2022-11-15T08:48:31;6.80;99.90
57552;DHT22;43379;48.160;14.036;2022-11-15T08:50:56;6.80;99.90
57552;DHT22;43379;48.160;14.036;2022-11-15T08:53:22;6.60;99.90
57552;DHT22;43379;48.160;14.036;2022-11-15T08:55:48;6.70;99.90
57552;DHT22;43379;48.160;14.036;2022-11-15T08:58:14;6.80;99.90
57552;DHT22;43379;48.160;14.036;2022-11-15T09:00:40;6.80;99.90
57552;DHT22;43379;48.160;14.036;2022-11-15T09:03:06;6.90;99.90
57552;DHT22;43379;48.160;14.036;2022-11-15T09:05:32;7.00;99.90
57552;DHT22;43379;48.160;14.036;2022-11-15T09:08:01;7.20;99.90
57552;DHT22;43379;48.160;14.036;2022-11-15T09:10:26;7.10;99.90
57552;DHT22;43379;48.160;14.036;2022-11-15T09:12:52;7.20;99.90
57552;DHT22;43379;48.160;14.036;2022-11-15T09:15:18;7.30;99.90
57552;DHT22;43379;48.160;14.036;2022-11-15T09:17:45;7.40;99.90
57552;DHT22;43379;48.160;14.036;2022-11-15T09:20:10;7.40;99.90
57552;DHT22;43379;48.160;14.036;2022-11-15T09:22:36;7.30;99.90
57552;DHT22;43379;48.160;14.036;2022-11-15T09:25:04;7.30;99.90
57552;DHT22;43379;48.160;14.036;2022-11-15T09:27:30;7.50;99.90
57552;DHT22;43379;48.160;14.036;2022-11-15T09:29:55;7.60;99.90
57552;DHT22;43379;48.160;14.036;2022-11-15T09:32:21;7.70;99.90
57552;DHT22;43379;48.160;14.036;2022-11-15T09:34:50;7.70;99.90
57552;DHT22;43379;48.160;14.036;2022-11-15T09:37:16;7.80;99.90
57552;DHT22;43379;48.160;14.036;2022-11-15T09:39:42;7.80;99.90
57552;DHT22;43379;48.160;14.036;2022-11-15T09:44:44;7.60;99.90
57552;DHT22;43379;48.160;14.036;2022-11-15T09:50:15;7.50;99.90
57552;DHT22;43379;48.160;14.036;2022-11-15T09:52:44;7.50;99.90
57552;DHT22;43379;48.160;14.036;2022-11-15T09:55:11;7.50;99.90
57552;DHT22;43379;48.160;14.036;2022-11-15T09:57:54;7.30;99.90
57552;DHT22;43379;48.160;14.036;2022-11-15T10:00:48;7.30;99.90
57552;DHT22;43379;48.160;14.036;2022-11-15T10:03:34;7.00;99.90
57552;DHT22;43379;48.160;14.036;2022-11-15T10:06:04;6.90;99.90
57552;DHT22;43379;48.160;14.036;2022-11-15T10:11:27;7.00;99.90
57552;DHT22;43379;48.160;14.036;2022-11-15T10:14:17;6.90;99.90
57552;DHT22;43379;48.160;14.036;2022-11-15T10:19:39;6.90;99.90
57552;DHT22;43379;48.160;14.036;2022-11-15T10:22:29;7.00;99.90
57552;DHT22;43379;48.160;14.036;2022-11-15T10:25:16;6.90;99.90
57552;DHT22;43379;48.160;14.036;2022-11-15T10:27:44;7.10;99.90
57552;DHT22;43379;48.160;14.036;2022-11-15T10:30:14;7.10;99.90
57552;DHT22;43379;48.160;14.036;2022-11-15T10:32:42;7.10;99.90
57552;DHT22;43379;48.160;14.036;2022-11-15T10:35:24;7.20;99.90
57552;DHT22;43379;48.160;14.036;2022-11-15T10:37:50;7.30;99.90
57552;DHT22;43379;48.160;14.036;2022-11-15T10:40:21;7.50;99.90
57552;DHT22;43379;48.160;14.036;2022-11-15T10:42:48;7.60;99.90
57552;DHT22;43379;48.160;14.036;2022-11-15T10:45:40;7.60;99.90
57552;DHT22;43379;48.160;14.036;2022-11-15T10:50:44;7.70;99.90
57552;DHT22;43379;48.160;14.036;2022-11-15T10:53:21;7.70;99.90
57552;DHT22;43379;48.160;14.036;2022-11-15T10:55:50;7.70;99.90
57552;DHT22;43379;48.160;14.036;2022-11-15T10:58:42;7.70;99.90
57552;DHT22;43379;48.160;14.036;2022-11-15T11:01:11;7.70;99.90
57552;DHT22;43379;48.160;14.036;2022-11-15T11:03:38;7.70;99.90
57552;DHT22;43379;48.160;14.036;2022-11-15T11:08:35;7.80;99.90
57552;DHT22;43379;48.160;14.036;2022-11-15T11:11:03;7.80;99.90
57552;DHT22;43379;48.160;14.036;2022-11-15T11:13:31;7.90;99.90
57552;DHT22;43379;48.160;14.036;2022-11-15T11:18:49;8.10;99.90
57552;DHT22;43379;48.160;14.036;2022-11-15T11:24:20;8.20;99.90
57552;DHT22;43379;48.160;14.036;2022-11-15T11:35:12;8.50;99.90
57552;DHT22;43379;48.160;14.036;2022-11-15T11:40:43;8.30;99.90
57552;DHT22;43379;48.160;14.036;2022-11-15T11:51:39;8.20;99.90
57552;DHT22;43379;48.160;14.036;2022-11-15T11:56:48;8.00;99.90
57552;DHT22;43379;48.160;14.036;2022-11-15T12:00:12;8.10;99.90
57552;DHT22;43379;48.160;14.036;2022-11-15T12:02:36;8.20;99.90
57552;DHT22;43379;48.160;14.036;2022-11-15T12:05:13;8.00;99.90
57552;DHT22;43379;48.160;14.036;2022-11-15T12:07:42;7.80;99.90
57552;DHT22;43379;48.160;14.036;2022-11-15T12:10:23;7.80;99.90
57552;DHT22;43379;48.160;14.036;2022-11-15T12:13:04;7.80;99.90
57552;DHT22;43379;48.160;14.036;2022-11-15T12:15:56;7.80;99.90
57552;DHT22;43379;48.160;14.036;2022-11-15T12:18:23;7.70;99.90
57552;DHT22;43379;48.160;14.036;2022-11-15T12:21:04;7.70;99.90
57552;DHT22;43379;48.160;14.036;2022-11-15T12:23:39;7.50;99.90
57552;DHT22;43379;48.160;14.036;2022-11-15T12:26:19;7.40;99.90
57552;DHT22;43379;48.160;14.036;2022-11-15T12:31:23;7.20;99.90
57552;DHT22;43379;48.160;14.036;2022-11-15T12:33:56;7.20;99.90
57552;DHT22;43379;48.160;14.036;2022-11-15T13:04:55;7.50;99.90
57552;DHT22;43379;48.160;14.036;2022-11-15T13:12:59;7.50;99.90
57552;DHT22;43379;48.160;14.036;2022-11-15T13:15:54;7.60;99.90
57552;DHT22;43379;48.160;14.036;2022-11-15T13:18:36;7.60;99.90
57552;DHT22;43379;48.160;14.036;2022-11-15T13:21:04;7.70;99.90
57552;DHT22;43379;48.160;14.036;2022-11-15T13:23:54;7.60;99.90
57552;DHT22;43379;48.160;14.036;2022-11-15T13:26:21;7.70;99.90
57552;DHT22;43379;48.160;14.036;2022-11-15T13:28:49;7.60;99.90
57552;DHT22;43379;48.160;14.036;2022-11-15T13:33:52;7.70;99.90
57552;DHT22;43379;48.160;14.036;2022-11-15T13:36:21;7.80;99.90
57552;DHT22;43379;48.160;14.036;2022-11-15T13:39:03;7.80;99.90
57552;DHT22;43379;48.160;14.036;2022-11-15T13:41:34;7.90;99.90
57552;DHT22;43379;48.160;14.036;2022-11-15T13:44:01;8.00;99.90
57552;DHT22;43379;48.160;14.036;2022-11-15T13:46:32;8.00;99.90
57552;DHT22;43379;48.160;14.036;2022-11-15T13:49:08;8.10;99.90
57552;DHT22;43379;48.160;14.036;2022-11-15T13:57:09;8.00;99.90
57552;DHT22;43379;48.160;14.036;2022-11-15T13:59:43;8.10;99.90
57552;DHT22;43379;48.160;14.036;2022-11-15T14:02:15;8.10;99.90
57552;DHT22;43379;48.160;14.036;2022-11-15T14:04:53;8.00;99.90
57552;DHT22;43379;48.160;14.036;2022-11-15T14:07:21;7.90;99.90
57552;DHT22;43379;48.160;14.036;2022-11-15T14:09:47;7.90;99.90
57552;DHT22;43379;48.160;14.036;2022-11-15T14:12:34;7.90;99.90
57552;DHT22;43379;48.160;14.036;2022-11-15T14:15:18;7.90;99.90
57552;DHT22;43379;48.160;14.036;2022-11-15T14:17:44;7.70;99.90
57552;DHT22;43379;48.160;14.036;2022-11-15T14:25:53;7.70;99.90
57552;DHT22;43379;48.160;14.036;2022-11-15T14:30:48;7.60;99.90
57552;DHT22;43379;48.160;14.036;2022-11-15T14:33:35;7.70;99.90
57552;DHT22;43379;48.160;14.036;2022-11-15T14:36:13;7.60;99.90
57552;DHT22;43379;48.160;14.036;2022-11-15T14:38:40;7.70;99.90
57552;DHT22;43379;48.160;14.036;2022-11-15T14:41:28;7.70;99.90
57552;DHT22;43379;48.160;14.036;2022-11-15T14:43:57;7.70;99.90
57552;DHT22;43379;48.160;14.036;2022-11-15T14:46:23;7.80;99.90
57552;DHT22;43379;48.160;14.036;2022-11-15T14:48:49;7.90;99.90
57552;DHT22;43379;48.160;14.036;2022-11-15T14:51:17;7.80;99.90
57552;DHT22;43379;48.160;14.036;2022-11-15T14:53:44;7.80;99.90
57552;DHT22;43379;48.160;14.036;2022-11-15T14:56:10;7.80;99.90
57552;DHT22;43379;48.160;14.036;2022-11-15T14:58:36;7.90;99.90
57552;DHT22;43379;48.160;14.036;2022-11-15T15:01:08;8.00;99.90
57552;DHT22;43379;48.160;14.036;2022-11-15T15:03:34;7.80;99.90
57552;DHT22;43379;48.160;14.036;2022-11-15T15:06:00;7.90;99.90
57552;DHT22;43379;48.160;14.036;2022-11-15T15:08:26;7.90;99.90
57552;DHT22;43379;48.160;14.036;2022-11-15T15:10:51;7.90;99.90
57552;DHT22;43379;48.160;14.036;2022-11-15T15:13:22;7.70;99.90
57552;DHT22;43379;48.160;14.036;2022-11-15T15:15:49;7.70;99.90
57552;DHT22;43379;48.160;14.036;2022-11-15T15:18:16;7.70;99.90
57552;DHT22;43379;48.160;14.036;2022-11-15T15:20:44;7.70;99.90
57552;DHT22;43379;48.160;14.036;2022-11-15T15:23:16;7.70;99.90
57552;DHT22;43379;48.160;14.036;2022-11-15T15:25:42;7.80;99.90
57552;DHT22;43379;48.160;14.036;2022-11-15T15:28:09;7.60;99.90
57552;DHT22;43379;48.160;14.036;2022-11-15T15:30:34;7.50;99.90
57552;DHT22;43379;48.160;14.036;2022-11-15T15:33:00;7.60;99.90
57552;DHT22;43379;48.160;14.036;2022-11-15T15:35:29;7.70;99.90
57552;DHT22;43379;48.160;14.036;2022-11-15T15:37:56;7.70;99.90
57552;DHT22;43379;48.160;14.036;2022-11-15T15:40:23;7.70;99.90
57552;DHT22;43379;48.160;14.036;2022-11-15T15:42:49;7.60;99.90
57552;DHT22;43379;48.160;14.036;2022-11-15T15:45:16;7.60;99.90
57552;DHT22;43379;48.160;14.036;2022-11-15T15:47:43;7.70;99.90
57552;DHT22;43379;48.160;14.036;2022-11-15T15:50:32;7.70;99.90
57552;DHT22;43379;48.160;14.036;2022-11-15T15:53:00;7.90;99.90
57552;DHT22;43379;48.160;14.036;2022-11-15T15:55:26;7.70;99.90
57552;DHT22;43379;48.160;14.036;2022-11-15T15:57:52;7.60;99.90
57552;DHT22;43379;48.160;14.036;2022-11-15T16:00:19;7.60;99.90
57552;DHT22;43379;48.160;14.036;2022-11-15T16:02:45;7.50;99.90
57552;DHT22;43379;48.160;14.036;2022-11-15T16:05:11;7.50;99.90
57552;DHT22;43379;48.160;14.036;2022-11-15T16:07:38;7.40;99.90
57552;DHT22;43379;48.160;14.036;2022-11-15T16:10:25;7.30;99.90
57552;DHT22;43379;48.160;14.036;2022-11-15T16:12:52;7.30;99.90
57552;DHT22;43379;48.160;14.036;2022-11-15T16:15:18;7.30;99.90
57552;DHT22;43379;48.160;14.036;2022-11-15T16:17:48;7.10;99.90
57552;DHT22;43379;48.160;14.036;2022-11-15T16:23:02;7.20;99.90
57552;DHT22;43379;48.160;14.036;2022-11-15T16:25:28;7.30;99.90
57552;DHT22;43379;48.160;14.036;2022-11-15T16:27:54;7.40;99.90
57552;DHT22;43379;48.160;14.036;2022-11-15T16:30:21;7.40;99.90
57552;DHT22;43379;48.160;14.036;2022-11-15T16:32:47;7.40;99.90
57552;DHT22;43379;48.160;14.036;2022-11-15T16:35:16;7.40;99.90
57552;DHT22;43379;48.160;14.036;2022-11-15T16:37:43;7.40;99.90
57552;DHT22;43379;48.160;14.036;2022-11-15T16:40:32;7.40;99.90
57552;DHT22;43379;48.160;14.036;2022-11-15T16:42:58;7.40;99.90
57552;DHT22;43379;48.160;14.036;2022-11-15T16:45:26;7.40;99.90
57552;DHT22;43379;48.160;14.036;2022-11-15T16:47:54;7.30;99.90
57552;DHT22;43379;48.160;14.036;2022-11-15T16:50:22;7.30;99.90
57552;DHT22;43379;48.160;14.036;2022-11-15T16:52:56;7.30;99.90
57552;DHT22;43379;48.160;14.036;2022-11-15T16:55:24;7.30;99.90
57552;DHT22;43379;48.160;14.036;2022-11-15T16:57:50;7.30;99.90
57552;DHT22;43379;48.160;14.036;2022-11-15T17:00:18;7.30;99.90
57552;DHT22;43379;48.160;14.036;2022-11-15T17:02:45;7.20;99.90
57552;DHT22;43379;48.160;14.036;2022-11-15T17:05:12;7.30;99.90
57552;DHT22;43379;48.160;14.036;2022-11-15T17:07:39;7.30;99.90
57552;DHT22;43379;48.160;14.036;2022-11-15T17:10:05;7.20;99.90
57552;DHT22;43379;48.160;14.036;2022-11-15T17:12:33;7.30;99.90
57552;DHT22;43379;48.160;14.036;2022-11-15T17:14:59;7.10;99.90
57552;DHT22;43379;48.160;14.036;2022-11-15T17:17:24;7.10;99.90
57552;DHT22;43379;48.160;14.036;2022-11-15T17:19:51;7.20;99.90
57552;DHT22;43379;48.160;14.036;2022-11-15T17:22:18;7.20;99.90
57552;DHT22;43379;48.160;14.036;2022-11-15T17:24:43;7.40;99.90
57552;DHT22;43379;48.160;14.036;2022-11-15T17:27:09;7.40;99.90
57552;DHT22;43379;48.160;14.036;2022-11-15T17:29:35;7.40;99.90
57552;DHT22;43379;48.160;14.036;2022-11-15T17:32:00;7.30;99.90
57552;DHT22;43379;48.160;14.036;2022-11-15T17:34:26;7.30;99.90
57552;DHT22;43379;48.160;14.036;2022-11-15T17:36:52;7.20;99.90
57552;DHT22;43379;48.160;14.036;2022-11-15T17:39:17;7.20;99.90
57552;DHT22;43379;48.160;14.036;2022-11-15T17:41:45;7.30;99.90
57552;DHT22;43379;48.160;14.036;2022-11-15T17:44:11;7.30;99.90
57552;DHT22;43379;48.160;14.036;2022-11-15T17:46:37;7.20;99.90
57552;DHT22;43379;48.160;14.036;2022-11-15T17:49:05;7.30;99.90
57552;DHT22;43379;48.160;14.036;2022-11-15T17:51:31;7.30;99.90